sensor_id;sensor_type;location;lat;lon;timestamp;P1;durP1;ratioP1;P2;durP2;ratioP2
80675;SDS011;70041;46.088;18.268;2024-02-16T00:00:16;23.10;;;10.60;;
80675;SDS011;70041;46.088;18.268;2024-02-16T00:02:42;23.45;;;12.02;;
80675;SDS011;70041;46.088;18.268;2024-02-16T00:05:08;22.73;;;11.43;;
80675;SDS011;70041;46.088;18.268;2024-02-16T00:07:36;26.70;;;13.23;;
80675;SDS011;70041;46.088;18.268;2024-02-16T00:10:02;20.70;;;10.60;;
80675;SDS011;70041;46.088;18.268;2024-02-16T00:12:29;22.83;;;10.80;;
80675;SDS011;70041;46.088;18.268;2024-02-16T00:14:55;19.65;;;9.18;;
80675;SDS011;70041;46.088;18.268;2024-02-16T00:17:21;20.13;;;8.83;;
80675;SDS011;70041;46.088;18.268;2024-02-16T00:19:47;16.85;;;8.15;;
80675;SDS011;70041;46.088;18.268;2024-02-16T00:22:12;18.17;;;8.27;;
80675;SDS011;70041;46.088;18.268;2024-02-16T00:24:38;15.57;;;6.90;;
80675;SDS011;70041;46.088;18.268;2024-02-16T00:27:03;15.67;;;7.57;;
80675;SDS011;70041;46.088;18.268;2024-02-16T00:29:30;14.98;;;6.93;;
80675;SDS011;70041;46.088;18.268;2024-02-16T00:31:57;14.88;;;7.53;;
80675;SDS011;70041;46.088;18.268;2024-02-16T00:34:24;14.88;;;7.32;;
80675;SDS011;70041;46.088;18.268;2024-02-16T00:36:50;17.40;;;6.55;;
80675;SDS011;70041;46.088;18.268;2024-02-16T00:39:15;15.18;;;6.82;;
80675;SDS011;70041;46.088;18.268;2024-02-16T00:41:40;13.17;;;7.10;;
80675;SDS011;70041;46.088;18.268;2024-02-16T00:44:06;12.97;;;6.20;;
80675;SDS011;70041;46.088;18.268;2024-02-16T00:46:31;15.13;;;6.37;;
80675;SDS011;70041;46.088;18.268;2024-02-16T00:48:57;11.93;;;5.10;;
80675;SDS011;70041;46.088;18.268;2024-02-16T00:51:22;13.77;;;6.33;;
80675;SDS011;70041;46.088;18.268;2024-02-16T00:53:50;13.65;;;6.15;;
80675;SDS011;70041;46.088;18.268;2024-02-16T00:56:16;14.43;;;6.23;;
80675;SDS011;70041;46.088;18.268;2024-02-16T00:58:41;11.67;;;5.80;;
80675;SDS011;70041;46.088;18.268;2024-02-16T01:01:09;13.95;;;5.78;;
80675;SDS011;70041;46.088;18.268;2024-02-16T01:03:35;16.10;;;6.80;;
80675;SDS011;70041;46.088;18.268;2024-02-16T01:06:02;12.32;;;6.07;;
80675;SDS011;70041;46.088;18.268;2024-02-16T01:08:28;12.07;;;5.95;;
80675;SDS011;70041;46.088;18.268;2024-02-16T01:10:53;12.70;;;6.10;;
80675;SDS011;70041;46.088;18.268;2024-02-16T01:13:19;13.17;;;5.97;;
80675;SDS011;70041;46.088;18.268;2024-02-16T01:15:44;17.47;;;6.93;;
80675;SDS011;70041;46.088;18.268;2024-02-16T01:18:10;12.45;;;6.38;;
80675;SDS011;70041;46.088;18.268;2024-02-16T01:20:36;12.73;;;6.18;;
80675;SDS011;70041;46.088;18.268;2024-02-16T01:23:02;15.57;;;7.13;;
80675;SDS011;70041;46.088;18.268;2024-02-16T01:25:28;14.82;;;6.80;;
80675;SDS011;70041;46.088;18.268;2024-02-16T01:27:53;11.20;;;5.50;;
80675;SDS011;70041;46.088;18.268;2024-02-16T01:30:19;14.33;;;6.30;;
80675;SDS011;70041;46.088;18.268;2024-02-16T01:32:46;14.20;;;6.00;;
80675;SDS011;70041;46.088;18.268;2024-02-16T01:35:12;16.65;;;6.55;;
80675;SDS011;70041;46.088;18.268;2024-02-16T01:37:39;14.32;;;6.63;;
80675;SDS011;70041;46.088;18.268;2024-02-16T01:40:08;14.60;;;6.50;;
80675;SDS011;70041;46.088;18.268;2024-02-16T01:42:39;12.73;;;6.35;;
80675;SDS011;70041;46.088;18.268;2024-02-16T01:45:08;12.80;;;5.97;;
80675;SDS011;70041;46.088;18.268;2024-02-16T01:47:34;11.88;;;6.10;;
80675;SDS011;70041;46.088;18.268;2024-02-16T01:50:02;16.35;;;6.50;;
80675;SDS011;70041;46.088;18.268;2024-02-16T01:52:28;13.70;;;5.83;;
80675;SDS011;70041;46.088;18.268;2024-02-16T01:54:55;11.75;;;6.57;;
80675;SDS011;70041;46.088;18.268;2024-02-16T01:57:24;13.77;;;6.18;;
80675;SDS011;70041;46.088;18.268;2024-02-16T01:59:49;14.67;;;6.27;;
80675;SDS011;70041;46.088;18.268;2024-02-16T02:02:15;15.23;;;6.88;;
80675;SDS011;70041;46.088;18.268;2024-02-16T02:04:40;16.57;;;6.63;;
80675;SDS011;70041;46.088;18.268;2024-02-16T02:07:16;12.95;;;6.13;;
80675;SDS011;70041;46.088;18.268;2024-02-16T02:09:41;13.93;;;6.27;;
80675;SDS011;70041;46.088;18.268;2024-02-16T02:12:08;14.38;;;6.80;;
80675;SDS011;70041;46.088;18.268;2024-02-16T02:14:34;13.48;;;6.22;;
80675;SDS011;70041;46.088;18.268;2024-02-16T02:17:01;14.38;;;6.20;;
80675;SDS011;70041;46.088;18.268;2024-02-16T02:19:27;14.87;;;6.80;;
80675;SDS011;70041;46.088;18.268;2024-02-16T02:21:53;11.10;;;5.90;;
80675;SDS011;70041;46.088;18.268;2024-02-16T02:24:19;15.30;;;6.77;;
80675;SDS011;70041;46.088;18.268;2024-02-16T02:26:45;12.85;;;6.28;;
80675;SDS011;70041;46.088;18.268;2024-02-16T02:29:11;14.37;;;6.10;;
80675;SDS011;70041;46.088;18.268;2024-02-16T02:31:36;14.23;;;6.30;;
80675;SDS011;70041;46.088;18.268;2024-02-16T02:34:01;12.53;;;6.30;;
80675;SDS011;70041;46.088;18.268;2024-02-16T02:36:27;16.20;;;6.97;;
80675;SDS011;70041;46.088;18.268;2024-02-16T02:38:52;15.30;;;6.63;;
80675;SDS011;70041;46.088;18.268;2024-02-16T02:41:18;17.83;;;7.63;;
80675;SDS011;70041;46.088;18.268;2024-02-16T02:43:44;15.20;;;6.53;;
80675;SDS011;70041;46.088;18.268;2024-02-16T02:46:14;12.40;;;6.82;;
80675;SDS011;70041;46.088;18.268;2024-02-16T02:48:41;16.88;;;7.38;;
80675;SDS011;70041;46.088;18.268;2024-02-16T02:51:07;14.80;;;6.73;;
80675;SDS011;70041;46.088;18.268;2024-02-16T02:53:32;13.98;;;6.88;;
80675;SDS011;70041;46.088;18.268;2024-02-16T02:55:58;15.03;;;6.77;;
80675;SDS011;70041;46.088;18.268;2024-02-16T02:58:23;13.87;;;6.20;;
80675;SDS011;70041;46.088;18.268;2024-02-16T03:00:49;12.93;;;6.03;;
80675;SDS011;70041;46.088;18.268;2024-02-16T03:03:14;15.00;;;7.00;;
80675;SDS011;70041;46.088;18.268;2024-02-16T03:05:40;13.90;;;7.40;;
80675;SDS011;70041;46.088;18.268;2024-02-16T03:08:07;13.85;;;6.13;;
80675;SDS011;70041;46.088;18.268;2024-02-16T03:10:32;15.25;;;7.03;;
80675;SDS011;70041;46.088;18.268;2024-02-16T03:13:00;19.43;;;7.07;;
80675;SDS011;70041;46.088;18.268;2024-02-16T03:15:26;11.98;;;6.07;;
80675;SDS011;70041;46.088;18.268;2024-02-16T03:17:51;16.60;;;6.93;;
80675;SDS011;70041;46.088;18.268;2024-02-16T03:20:17;11.68;;;6.28;;
80675;SDS011;70041;46.088;18.268;2024-02-16T03:22:42;14.70;;;7.23;;
80675;SDS011;70041;46.088;18.268;2024-02-16T03:25:08;18.77;;;8.43;;
80675;SDS011;70041;46.088;18.268;2024-02-16T03:27:34;15.47;;;7.10;;
80675;SDS011;70041;46.088;18.268;2024-02-16T03:30:00;16.63;;;6.65;;
80675;SDS011;70041;46.088;18.268;2024-02-16T03:32:25;60.20;;;21.67;;
80675;SDS011;70041;46.088;18.268;2024-02-16T03:34:51;56.58;;;20.33;;
80675;SDS011;70041;46.088;18.268;2024-02-16T03:37:16;22.20;;;8.73;;
80675;SDS011;70041;46.088;18.268;2024-02-16T03:39:42;18.80;;;8.03;;
80675;SDS011;70041;46.088;18.268;2024-02-16T03:42:08;15.73;;;6.28;;
80675;SDS011;70041;46.088;18.268;2024-02-16T03:44:34;14.40;;;6.73;;
80675;SDS011;70041;46.088;18.268;2024-02-16T03:46:59;13.48;;;5.85;;
80675;SDS011;70041;46.088;18.268;2024-02-16T03:49:25;13.37;;;6.23;;
80675;SDS011;70041;46.088;18.268;2024-02-16T03:51:53;17.05;;;7.53;;
80675;SDS011;70041;46.088;18.268;2024-02-16T03:54:18;17.53;;;7.83;;
80675;SDS011;70041;46.088;18.268;2024-02-16T03:56:43;53.17;;;21.23;;
80675;SDS011;70041;46.088;18.268;2024-02-16T03:59:10;45.28;;;18.50;;
80675;SDS011;70041;46.088;18.268;2024-02-16T04:01:35;41.47;;;17.73;;
80675;SDS011;70041;46.088;18.268;2024-02-16T04:04:01;45.00;;;18.48;;
80675;SDS011;70041;46.088;18.268;2024-02-16T04:06:28;29.63;;;11.93;;
80675;SDS011;70041;46.088;18.268;2024-02-16T04:08:53;18.38;;;8.73;;
80675;SDS011;70041;46.088;18.268;2024-02-16T04:11:19;18.67;;;7.83;;
80675;SDS011;70041;46.088;18.268;2024-02-16T04:13:46;17.90;;;7.85;;
80675;SDS011;70041;46.088;18.268;2024-02-16T04:16:12;12.03;;;6.67;;
80675;SDS011;70041;46.088;18.268;2024-02-16T04:18:37;14.53;;;6.63;;
80675;SDS011;70041;46.088;18.268;2024-02-16T04:21:03;17.05;;;7.45;;
80675;SDS011;70041;46.088;18.268;2024-02-16T04:23:28;19.37;;;7.40;;
80675;SDS011;70041;46.088;18.268;2024-02-16T04:25:54;16.90;;;6.70;;
80675;SDS011;70041;46.088;18.268;2024-02-16T04:28:19;16.63;;;7.97;;
80675;SDS011;70041;46.088;18.268;2024-02-16T04:30:44;12.82;;;7.28;;
80675;SDS011;70041;46.088;18.268;2024-02-16T04:33:10;15.30;;;7.23;;
80675;SDS011;70041;46.088;18.268;2024-02-16T04:35:35;14.40;;;6.53;;
80675;SDS011;70041;46.088;18.268;2024-02-16T04:38:01;14.37;;;6.73;;
80675;SDS011;70041;46.088;18.268;2024-02-16T04:40:26;15.20;;;7.10;;
80675;SDS011;70041;46.088;18.268;2024-02-16T04:42:52;15.68;;;7.57;;
80675;SDS011;70041;46.088;18.268;2024-02-16T04:45:17;15.43;;;7.63;;
80675;SDS011;70041;46.088;18.268;2024-02-16T04:47:42;16.67;;;7.83;;
80675;SDS011;70041;46.088;18.268;2024-02-16T04:50:08;18.13;;;7.37;;
80675;SDS011;70041;46.088;18.268;2024-02-16T04:52:37;15.52;;;7.50;;
80675;SDS011;70041;46.088;18.268;2024-02-16T04:55:04;17.52;;;7.50;;
80675;SDS011;70041;46.088;18.268;2024-02-16T04:57:30;23.15;;;12.00;;
80675;SDS011;70041;46.088;18.268;2024-02-16T04:59:57;27.20;;;14.53;;
80675;SDS011;70041;46.088;18.268;2024-02-16T05:02:22;27.27;;;14.40;;
80675;SDS011;70041;46.088;18.268;2024-02-16T05:04:47;20.47;;;9.33;;
80675;SDS011;70041;46.088;18.268;2024-02-16T05:07:13;17.43;;;8.33;;
80675;SDS011;70041;46.088;18.268;2024-02-16T05:09:40;15.73;;;8.52;;
80675;SDS011;70041;46.088;18.268;2024-02-16T05:12:06;17.03;;;7.67;;
80675;SDS011;70041;46.088;18.268;2024-02-16T05:14:32;18.73;;;8.50;;
80675;SDS011;70041;46.088;18.268;2024-02-16T05:16:57;19.27;;;7.75;;
80675;SDS011;70041;46.088;18.268;2024-02-16T05:19:22;16.47;;;7.07;;
80675;SDS011;70041;46.088;18.268;2024-02-16T05:21:48;15.90;;;7.40;;
80675;SDS011;70041;46.088;18.268;2024-02-16T05:24:13;17.07;;;8.30;;
80675;SDS011;70041;46.088;18.268;2024-02-16T05:26:38;20.17;;;8.80;;
80675;SDS011;70041;46.088;18.268;2024-02-16T05:29:04;17.43;;;8.93;;
80675;SDS011;70041;46.088;18.268;2024-02-16T05:31:29;18.40;;;8.15;;
80675;SDS011;70041;46.088;18.268;2024-02-16T05:33:56;16.27;;;8.93;;
80675;SDS011;70041;46.088;18.268;2024-02-16T05:36:22;20.58;;;9.32;;
80675;SDS011;70041;46.088;18.268;2024-02-16T05:38:55;27.70;;;11.82;;
80675;SDS011;70041;46.088;18.268;2024-02-16T05:41:21;37.38;;;16.98;;
80675;SDS011;70041;46.088;18.268;2024-02-16T05:43:47;42.83;;;21.67;;
80675;SDS011;70041;46.088;18.268;2024-02-16T05:46:16;76.07;;;42.92;;
80675;SDS011;70041;46.088;18.268;2024-02-16T05:48:42;62.75;;;38.50;;
80675;SDS011;70041;46.088;18.268;2024-02-16T05:51:09;46.80;;;29.35;;
80675;SDS011;70041;46.088;18.268;2024-02-16T05:53:37;44.03;;;24.17;;
80675;SDS011;70041;46.088;18.268;2024-02-16T05:56:03;56.27;;;29.67;;
80675;SDS011;70041;46.088;18.268;2024-02-16T05:58:29;81.43;;;47.90;;
80675;SDS011;70041;46.088;18.268;2024-02-16T06:00:54;75.55;;;45.35;;
80675;SDS011;70041;46.088;18.268;2024-02-16T06:03:20;58.35;;;37.95;;
80675;SDS011;70041;46.088;18.268;2024-02-16T06:05:46;29.83;;;16.97;;
80675;SDS011;70041;46.088;18.268;2024-02-16T06:08:12;35.70;;;19.77;;
80675;SDS011;70041;46.088;18.268;2024-02-16T06:10:38;27.43;;;13.37;;
80675;SDS011;70041;46.088;18.268;2024-02-16T06:13:04;29.65;;;14.07;;
80675;SDS011;70041;46.088;18.268;2024-02-16T06:15:29;28.83;;;13.37;;
80675;SDS011;70041;46.088;18.268;2024-02-16T06:17:55;29.02;;;13.25;;
80675;SDS011;70041;46.088;18.268;2024-02-16T06:20:21;29.75;;;14.93;;
80675;SDS011;70041;46.088;18.268;2024-02-16T06:22:46;32.35;;;16.05;;
80675;SDS011;70041;46.088;18.268;2024-02-16T06:25:12;25.10;;;12.33;;
80675;SDS011;70041;46.088;18.268;2024-02-16T06:27:37;22.53;;;10.17;;
80675;SDS011;70041;46.088;18.268;2024-02-16T06:30:03;25.05;;;9.73;;
80675;SDS011;70041;46.088;18.268;2024-02-16T06:32:29;17.97;;;10.10;;
80675;SDS011;70041;46.088;18.268;2024-02-16T06:34:56;22.65;;;10.50;;
80675;SDS011;70041;46.088;18.268;2024-02-16T06:37:21;21.00;;;9.65;;
80675;SDS011;70041;46.088;18.268;2024-02-16T06:39:47;21.30;;;9.63;;
80675;SDS011;70041;46.088;18.268;2024-02-16T06:42:12;25.70;;;11.20;;
80675;SDS011;70041;46.088;18.268;2024-02-16T06:44:38;26.17;;;11.00;;
80675;SDS011;70041;46.088;18.268;2024-02-16T06:47:04;25.85;;;11.55;;
80675;SDS011;70041;46.088;18.268;2024-02-16T06:49:30;28.08;;;10.98;;
80675;SDS011;70041;46.088;18.268;2024-02-16T06:51:56;20.08;;;9.07;;
80675;SDS011;70041;46.088;18.268;2024-02-16T06:54:22;21.35;;;9.95;;
80675;SDS011;70041;46.088;18.268;2024-02-16T06:56:47;18.52;;;8.55;;
80675;SDS011;70041;46.088;18.268;2024-02-16T06:59:13;15.75;;;8.40;;
80675;SDS011;70041;46.088;18.268;2024-02-16T07:01:38;20.50;;;10.23;;
80675;SDS011;70041;46.088;18.268;2024-02-16T07:04:04;19.73;;;9.67;;
80675;SDS011;70041;46.088;18.268;2024-02-16T07:06:29;18.52;;;9.52;;
80675;SDS011;70041;46.088;18.268;2024-02-16T07:08:55;23.03;;;9.40;;
80675;SDS011;70041;46.088;18.268;2024-02-16T07:11:21;18.50;;;9.43;;
80675;SDS011;70041;46.088;18.268;2024-02-16T07:13:47;21.27;;;10.13;;
80675;SDS011;70041;46.088;18.268;2024-02-16T07:16:12;19.70;;;9.90;;
80675;SDS011;70041;46.088;18.268;2024-02-16T07:18:38;22.10;;;9.30;;
80675;SDS011;70041;46.088;18.268;2024-02-16T07:21:03;19.57;;;9.47;;
80675;SDS011;70041;46.088;18.268;2024-02-16T07:23:29;20.45;;;9.75;;
80675;SDS011;70041;46.088;18.268;2024-02-16T07:25:55;20.07;;;10.90;;
80675;SDS011;70041;46.088;18.268;2024-02-16T07:28:24;20.70;;;10.45;;
80675;SDS011;70041;46.088;18.268;2024-02-16T07:30:55;20.52;;;10.23;;
80675;SDS011;70041;46.088;18.268;2024-02-16T07:33:55;21.47;;;10.40;;
80675;SDS011;70041;46.088;18.268;2024-02-16T07:36:21;21.80;;;12.00;;
80675;SDS011;70041;46.088;18.268;2024-02-16T07:38:47;23.07;;;10.80;;
80675;SDS011;70041;46.088;18.268;2024-02-16T07:41:12;23.98;;;12.10;;
80675;SDS011;70041;46.088;18.268;2024-02-16T07:43:38;32.07;;;14.00;;
80675;SDS011;70041;46.088;18.268;2024-02-16T07:46:03;40.83;;;14.70;;
80675;SDS011;70041;46.088;18.268;2024-02-16T07:48:29;32.40;;;13.88;;
80675;SDS011;70041;46.088;18.268;2024-02-16T07:50:54;23.80;;;10.87;;
80675;SDS011;70041;46.088;18.268;2024-02-16T07:53:23;27.58;;;11.30;;
80675;SDS011;70041;46.088;18.268;2024-02-16T07:55:48;19.17;;;9.83;;
80675;SDS011;70041;46.088;18.268;2024-02-16T07:58:14;18.17;;;9.03;;
80675;SDS011;70041;46.088;18.268;2024-02-16T08:00:39;20.23;;;9.23;;
80675;SDS011;70041;46.088;18.268;2024-02-16T08:03:04;20.67;;;9.95;;
80675;SDS011;70041;46.088;18.268;2024-02-16T08:05:30;20.90;;;10.17;;
80675;SDS011;70041;46.088;18.268;2024-02-16T08:07:55;21.43;;;9.70;;
80675;SDS011;70041;46.088;18.268;2024-02-16T08:10:21;19.30;;;8.93;;
80675;SDS011;70041;46.088;18.268;2024-02-16T08:12:47;19.40;;;9.55;;
80675;SDS011;70041;46.088;18.268;2024-02-16T08:15:12;16.73;;;8.75;;
80675;SDS011;70041;46.088;18.268;2024-02-16T08:17:38;20.13;;;10.13;;
80675;SDS011;70041;46.088;18.268;2024-02-16T08:20:04;20.17;;;9.88;;
80675;SDS011;70041;46.088;18.268;2024-02-16T08:22:30;14.95;;;7.88;;
80675;SDS011;70041;46.088;18.268;2024-02-16T08:24:57;19.38;;;8.52;;
80675;SDS011;70041;46.088;18.268;2024-02-16T08:27:22;19.67;;;9.20;;
80675;SDS011;70041;46.088;18.268;2024-02-16T08:29:49;18.23;;;9.13;;
80675;SDS011;70041;46.088;18.268;2024-02-16T08:32:16;18.45;;;8.75;;
80675;SDS011;70041;46.088;18.268;2024-02-16T08:34:42;17.07;;;8.83;;
80675;SDS011;70041;46.088;18.268;2024-02-16T08:37:07;18.77;;;8.98;;
80675;SDS011;70041;46.088;18.268;2024-02-16T08:39:33;18.80;;;9.53;;
80675;SDS011;70041;46.088;18.268;2024-02-16T08:41:59;18.08;;;8.23;;
80675;SDS011;70041;46.088;18.268;2024-02-16T08:44:25;16.40;;;7.90;;
80675;SDS011;70041;46.088;18.268;2024-02-16T08:46:51;20.35;;;8.95;;
80675;SDS011;70041;46.088;18.268;2024-02-16T08:49:17;20.80;;;8.20;;
80675;SDS011;70041;46.088;18.268;2024-02-16T08:51:42;16.73;;;7.85;;
80675;SDS011;70041;46.088;18.268;2024-02-16T08:54:08;16.80;;;8.15;;
80675;SDS011;70041;46.088;18.268;2024-02-16T08:56:35;18.55;;;8.13;;
80675;SDS011;70041;46.088;18.268;2024-02-16T08:59:04;14.25;;;7.20;;
80675;SDS011;70041;46.088;18.268;2024-02-16T09:01:30;16.83;;;7.57;;
80675;SDS011;70041;46.088;18.268;2024-02-16T09:03:58;15.57;;;7.45;;
80675;SDS011;70041;46.088;18.268;2024-02-16T09:06:25;15.05;;;7.68;;
80675;SDS011;70041;46.088;18.268;2024-02-16T09:08:50;18.17;;;7.17;;
80675;SDS011;70041;46.088;18.268;2024-02-16T09:11:16;11.70;;;6.40;;
80675;SDS011;70041;46.088;18.268;2024-02-16T09:13:42;13.60;;;6.38;;
80675;SDS011;70041;46.088;18.268;2024-02-16T09:16:08;14.05;;;6.55;;
80675;SDS011;70041;46.088;18.268;2024-02-16T09:18:34;13.50;;;5.90;;
80675;SDS011;70041;46.088;18.268;2024-02-16T09:20:59;16.17;;;6.17;;
80675;SDS011;70041;46.088;18.268;2024-02-16T09:23:26;14.90;;;5.88;;
80675;SDS011;70041;46.088;18.268;2024-02-16T09:25:51;15.15;;;6.30;;
80675;SDS011;70041;46.088;18.268;2024-02-16T09:28:17;12.48;;;5.82;;
80675;SDS011;70041;46.088;18.268;2024-02-16T09:30:45;13.30;;;5.57;;
80675;SDS011;70041;46.088;18.268;2024-02-16T09:33:11;15.55;;;5.97;;
80675;SDS011;70041;46.088;18.268;2024-02-16T09:35:37;14.93;;;5.10;;
80675;SDS011;70041;46.088;18.268;2024-02-16T09:38:03;11.50;;;5.07;;
80675;SDS011;70041;46.088;18.268;2024-02-16T09:40:28;11.68;;;5.55;;
80675;SDS011;70041;46.088;18.268;2024-02-16T09:42:56;10.97;;;5.00;;
80675;SDS011;70041;46.088;18.268;2024-02-16T09:45:23;14.07;;;5.50;;
80675;SDS011;70041;46.088;18.268;2024-02-16T09:47:49;10.93;;;5.85;;
80675;SDS011;70041;46.088;18.268;2024-02-16T09:50:16;11.77;;;5.35;;
80675;SDS011;70041;46.088;18.268;2024-02-16T09:52:46;10.63;;;5.00;;
80675;SDS011;70041;46.088;18.268;2024-02-16T09:55:13;13.73;;;5.38;;
80675;SDS011;70041;46.088;18.268;2024-02-16T09:57:39;10.88;;;4.50;;
80675;SDS011;70041;46.088;18.268;2024-02-16T10:00:04;11.53;;;4.87;;
80675;SDS011;70041;46.088;18.268;2024-02-16T10:02:45;13.38;;;5.78;;
80675;SDS011;70041;46.088;18.268;2024-02-16T10:05:14;21.00;;;6.10;;
80675;SDS011;70041;46.088;18.268;2024-02-16T10:07:42;15.00;;;5.68;;
80675;SDS011;70041;46.088;18.268;2024-02-16T10:12:48;17.00;;;5.60;;
80675;SDS011;70041;46.088;18.268;2024-02-16T10:15:20;13.43;;;6.20;;
80675;SDS011;70041;46.088;18.268;2024-02-16T10:18:00;11.70;;;5.22;;
80675;SDS011;70041;46.088;18.268;2024-02-16T10:20:31;12.13;;;5.57;;
80675;SDS011;70041;46.088;18.268;2024-02-16T10:25:36;13.02;;;5.30;;
80675;SDS011;70041;46.088;18.268;2024-02-16T10:28:06;13.00;;;6.73;;
80675;SDS011;70041;46.088;18.268;2024-02-16T10:30:36;11.27;;;5.30;;
80675;SDS011;70041;46.088;18.268;2024-02-16T10:33:06;11.38;;;5.30;;
80675;SDS011;70041;46.088;18.268;2024-02-16T10:35:33;12.05;;;5.65;;
80675;SDS011;70041;46.088;18.268;2024-02-16T10:38:00;13.50;;;5.97;;
80675;SDS011;70041;46.088;18.268;2024-02-16T10:40:30;14.97;;;6.27;;
80675;SDS011;70041;46.088;18.268;2024-02-16T10:42:57;12.70;;;6.15;;
80675;SDS011;70041;46.088;18.268;2024-02-16T10:45:29;13.95;;;6.13;;
80675;SDS011;70041;46.088;18.268;2024-02-16T10:47:55;13.80;;;5.60;;
80675;SDS011;70041;46.088;18.268;2024-02-16T10:50:20;12.43;;;5.43;;
80675;SDS011;70041;46.088;18.268;2024-02-16T10:52:45;13.23;;;5.90;;
80675;SDS011;70041;46.088;18.268;2024-02-16T10:55:13;12.98;;;5.93;;
80675;SDS011;70041;46.088;18.268;2024-02-16T10:57:40;10.90;;;5.40;;
80675;SDS011;70041;46.088;18.268;2024-02-16T11:00:09;14.40;;;6.03;;
80675;SDS011;70041;46.088;18.268;2024-02-16T11:02:54;13.43;;;6.13;;
80675;SDS011;70041;46.088;18.268;2024-02-16T11:05:32;11.20;;;4.93;;
80675;SDS011;70041;46.088;18.268;2024-02-16T11:08:04;10.82;;;4.20;;
80675;SDS011;70041;46.088;18.268;2024-02-16T11:10:36;11.27;;;4.80;;
80675;SDS011;70041;46.088;18.268;2024-02-16T11:13:02;10.40;;;4.20;;
80675;SDS011;70041;46.088;18.268;2024-02-16T11:15:32;9.60;;;4.10;;
80675;SDS011;70041;46.088;18.268;2024-02-16T11:18:01;12.23;;;4.57;;
80675;SDS011;70041;46.088;18.268;2024-02-16T11:20:29;12.50;;;5.10;;
80675;SDS011;70041;46.088;18.268;2024-02-16T11:23:09;10.38;;;4.63;;
80675;SDS011;70041;46.088;18.268;2024-02-16T11:25:34;12.02;;;4.53;;
80675;SDS011;70041;46.088;18.268;2024-02-16T11:28:01;11.23;;;4.43;;
80675;SDS011;70041;46.088;18.268;2024-02-16T11:30:27;11.23;;;4.72;;
80675;SDS011;70041;46.088;18.268;2024-02-16T11:32:53;11.57;;;4.77;;
80675;SDS011;70041;46.088;18.268;2024-02-16T11:35:18;11.60;;;4.43;;
80675;SDS011;70041;46.088;18.268;2024-02-16T11:37:44;9.07;;;4.37;;
80675;SDS011;70041;46.088;18.268;2024-02-16T11:40:12;9.85;;;4.13;;
80675;SDS011;70041;46.088;18.268;2024-02-16T11:42:38;10.02;;;4.07;;
80675;SDS011;70041;46.088;18.268;2024-02-16T11:45:03;10.37;;;4.13;;
80675;SDS011;70041;46.088;18.268;2024-02-16T11:47:29;9.05;;;3.85;;
80675;SDS011;70041;46.088;18.268;2024-02-16T11:50:05;7.87;;;4.00;;
80675;SDS011;70041;46.088;18.268;2024-02-16T11:52:32;8.75;;;3.80;;
80675;SDS011;70041;46.088;18.268;2024-02-16T11:54:58;11.18;;;4.65;;
80675;SDS011;70041;46.088;18.268;2024-02-16T11:57:28;10.02;;;3.50;;
80675;SDS011;70041;46.088;18.268;2024-02-16T11:59:55;9.00;;;3.65;;
80675;SDS011;70041;46.088;18.268;2024-02-16T12:02:21;9.57;;;3.92;;
80675;SDS011;70041;46.088;18.268;2024-02-16T12:04:47;7.95;;;3.50;;
80675;SDS011;70041;46.088;18.268;2024-02-16T12:07:13;9.63;;;4.18;;
80675;SDS011;70041;46.088;18.268;2024-02-16T12:09:39;9.35;;;3.53;;
80675;SDS011;70041;46.088;18.268;2024-02-16T12:12:05;9.20;;;3.72;;
80675;SDS011;70041;46.088;18.268;2024-02-16T12:14:31;9.68;;;3.40;;
80675;SDS011;70041;46.088;18.268;2024-02-16T12:16:58;10.05;;;3.90;;
80675;SDS011;70041;46.088;18.268;2024-02-16T12:19:24;8.85;;;3.42;;
80675;SDS011;70041;46.088;18.268;2024-02-16T12:21:57;9.70;;;3.70;;
80675;SDS011;70041;46.088;18.268;2024-02-16T12:24:23;11.35;;;4.30;;
80675;SDS011;70041;46.088;18.268;2024-02-16T12:26:48;8.95;;;4.30;;
80675;SDS011;70041;46.088;18.268;2024-02-16T12:29:14;11.80;;;4.93;;
80675;SDS011;70041;46.088;18.268;2024-02-16T12:31:41;10.80;;;5.07;;
80675;SDS011;70041;46.088;18.268;2024-02-16T12:34:09;9.40;;;4.68;;
80675;SDS011;70041;46.088;18.268;2024-02-16T12:36:35;11.00;;;4.22;;
80675;SDS011;70041;46.088;18.268;2024-02-16T12:39:02;9.20;;;4.10;;
80675;SDS011;70041;46.088;18.268;2024-02-16T12:41:31;11.00;;;4.55;;
80675;SDS011;70041;46.088;18.268;2024-02-16T12:43:59;9.90;;;4.40;;
80675;SDS011;70041;46.088;18.268;2024-02-16T12:46:25;11.17;;;4.50;;
80675;SDS011;70041;46.088;18.268;2024-02-16T12:48:50;9.45;;;4.22;;
80675;SDS011;70041;46.088;18.268;2024-02-16T12:51:17;9.00;;;3.90;;
80675;SDS011;70041;46.088;18.268;2024-02-16T12:53:43;8.80;;;3.70;;
80675;SDS011;70041;46.088;18.268;2024-02-16T12:56:09;12.02;;;4.72;;
80675;SDS011;70041;46.088;18.268;2024-02-16T12:58:38;11.13;;;5.18;;
80675;SDS011;70041;46.088;18.268;2024-02-16T13:01:04;8.98;;;3.88;;
80675;SDS011;70041;46.088;18.268;2024-02-16T13:03:35;11.35;;;4.13;;
80675;SDS011;70041;46.088;18.268;2024-02-16T13:06:02;8.88;;;4.30;;
80675;SDS011;70041;46.088;18.268;2024-02-16T13:08:28;9.70;;;4.40;;
80675;SDS011;70041;46.088;18.268;2024-02-16T13:10:54;12.20;;;4.72;;
80675;SDS011;70041;46.088;18.268;2024-02-16T13:13:20;11.85;;;3.95;;
80675;SDS011;70041;46.088;18.268;2024-02-16T13:15:46;10.97;;;4.73;;
80675;SDS011;70041;46.088;18.268;2024-02-16T13:18:15;9.20;;;4.20;;
80675;SDS011;70041;46.088;18.268;2024-02-16T13:20:41;9.00;;;4.45;;
80675;SDS011;70041;46.088;18.268;2024-02-16T13:23:07;10.93;;;4.82;;
80675;SDS011;70041;46.088;18.268;2024-02-16T13:25:32;10.80;;;4.50;;
80675;SDS011;70041;46.088;18.268;2024-02-16T13:27:57;10.43;;;4.43;;
80675;SDS011;70041;46.088;18.268;2024-02-16T13:30:24;13.10;;;4.03;;
80675;SDS011;70041;46.088;18.268;2024-02-16T13:32:50;8.05;;;3.20;;
80675;SDS011;70041;46.088;18.268;2024-02-16T13:35:15;9.50;;;4.20;;
80675;SDS011;70041;46.088;18.268;2024-02-16T13:37:41;9.87;;;4.23;;
80675;SDS011;70041;46.088;18.268;2024-02-16T13:40:07;10.40;;;3.97;;
80675;SDS011;70041;46.088;18.268;2024-02-16T13:42:36;10.77;;;4.00;;
80675;SDS011;70041;46.088;18.268;2024-02-16T13:45:05;9.63;;;4.03;;
80675;SDS011;70041;46.088;18.268;2024-02-16T13:47:31;9.10;;;3.90;;
80675;SDS011;70041;46.088;18.268;2024-02-16T13:49:56;8.97;;;3.87;;
80675;SDS011;70041;46.088;18.268;2024-02-16T13:52:23;8.25;;;3.72;;
80675;SDS011;70041;46.088;18.268;2024-02-16T13:54:49;8.90;;;3.67;;
80675;SDS011;70041;46.088;18.268;2024-02-16T13:57:15;8.57;;;3.58;;
80675;SDS011;70041;46.088;18.268;2024-02-16T13:59:40;8.27;;;3.60;;
80675;SDS011;70041;46.088;18.268;2024-02-16T14:02:07;7.88;;;3.47;;
80675;SDS011;70041;46.088;18.268;2024-02-16T14:04:32;10.47;;;3.60;;
80675;SDS011;70041;46.088;18.268;2024-02-16T14:06:58;9.43;;;3.65;;
80675;SDS011;70041;46.088;18.268;2024-02-16T14:09:23;9.67;;;4.20;;
80675;SDS011;70041;46.088;18.268;2024-02-16T14:11:49;10.88;;;3.78;;
80675;SDS011;70041;46.088;18.268;2024-02-16T14:14:16;14.40;;;6.22;;
80675;SDS011;70041;46.088;18.268;2024-02-16T14:16:41;13.67;;;6.03;;
80675;SDS011;70041;46.088;18.268;2024-02-16T14:19:06;14.70;;;5.70;;
80675;SDS011;70041;46.088;18.268;2024-02-16T14:21:32;13.07;;;4.63;;